Time;durP1;ratioP1;P1;durP2;ratioP2;P2;SDS_P1;SDS_P2;PMS_P1;PMS_P2;Temp;Humidity;BMP_temperature;BMP_pressure;BME280_temperature;BME280_humidity;BME280_pressure;Samples;Min_cycle;Max_cycle;Signal;HPM_P1;HPM_P2
2022/05/26 00:03:41;;;;;;;9.05;5.85;;;;;;;14.84;89.29;100282.45;2810464;83;21037;-91
2022/05/26 00:07:42;;;;;;;9.90;6.28;;;;;;;14.84;89.08;100290.00;2788258;83;21501;-91
2022/05/26 00:11:43;;;;;;;10.95;7.28;;;;;;;14.86;89.20;100283.14;2802538;83;21053;-90
2022/05/26 00:15:44;;;;;;;12.60;7.00;;;;;;;14.87;88.73;100283.48;2794982;84;20997;-90
2022/05/26 00:19:45;;;;;;;13.13;7.50;;;;;;;14.84;88.21;100274.42;2815501;83;21664;-90
2022/05/26 00:23:46;;;;;;;10.72;7.33;;;;;;;14.88;88.22;100278.47;2802839;83;20986;-91
2022/05/26 00:27:47;;;;;;;12.03;7.12;;;;;;;14.85;87.29;100276.95;2823545;83;21017;-92
2022/05/26 00:31:48;;;;;;;9.63;7.70;;;;;;;14.80;87.26;100281.09;2815044;83;21053;-90
2022/05/26 00:35:50;;;;;;;10.32;8.55;;;;;;;14.74;87.54;100281.20;2839799;82;21452;-90
2022/05/26 00:39:51;;;;;;;11.43;8.48;;;;;;;14.78;88.20;100276.39;2823650;83;20990;-90
2022/05/26 00:43:52;;;;;;;10.03;8.95;;;;;;;14.87;88.45;100278.64;2774609;83;21051;-89
2022/05/26 00:47:53;;;;;;;11.50;8.35;;;;;;;14.96;88.04;100282.57;2749885;83;21005;-89
2022/05/26 00:51:55;;;;;;;8.55;7.70;;;;;;;14.96;87.19;100279.89;2816967;83;21069;-90
2022/05/26 00:56:05;;;;;;;13.53;6.97;;;;;;;14.94;86.46;100276.53;2808539;83;21046;-88
2022/05/26 01:00:12;;;;;;;10.08;5.40;;;;;;;14.87;86.40;100274.63;2839049;83;21062;-88
2022/05/26 01:04:18;;;;;;;5.35;4.87;;;;;;;14.81;86.56;100272.88;2786637;83;21022;-90
2022/05/26 01:08:27;;;;;;;8.15;5.75;;;;;;;14.79;86.44;100277.55;2773220;83;21097;-90
2022/05/26 01:12:29;;;;;;;10.88;6.22;;;;;;;14.79;86.00;100280.74;2796946;83;21050;-91
2022/05/26 01:16:53;;;;;;;13.25;5.72;;;;;;;14.75;85.95;100279.38;2787528;84;21133;-89
2022/05/26 01:21:18;;;;;;;5.80;5.25;;;;;;;14.70;85.37;100279.28;2839965;83;21928;-90
2022/05/26 01:25:42;;;;;;;5.67;4.10;;;;;;;14.66;85.28;100277.91;2814688;83;21086;-90
2022/05/26 01:30:01;;;;;;;23.57;6.08;;;;;;;14.63;84.77;100274.20;2809594;84;21677;-90
2022/05/26 01:34:29;;;;;;;7.30;3.98;;;;;;;14.56;84.61;100277.16;2811534;84;21392;-90
2022/05/26 01:38:55;;;;;;;10.95;4.75;;;;;;;14.49;84.42;100278.26;2712557;86;21062;-90
2022/05/26 01:43:16;;;;;;;5.45;3.95;;;;;;;14.42;84.29;100272.66;2714676;86;21090;-87
2022/05/26 01:47:55;;;;;;;4.37;3.42;;;;;;;14.36;84.30;100266.59;2585673;89;21104;-89
2022/05/26 01:52:13;;;;;;;11.70;3.62;;;;;;;14.28;84.54;100269.16;2559581;87;21124;-90
2022/05/26 01:56:28;;;;;;;9.23;3.67;;;;;;;14.18;85.14;100273.74;2544067;91;21053;-89
2022/05/26 02:00:31;;;;;;;5.90;3.98;;;;;;;14.10;85.43;100276.65;2564799;90;21121;-90
2022/05/26 02:04:45;;;;;;;6.15;3.35;;;;;;;14.12;85.81;100273.33;2608763;89;21549;-91
2022/05/26 02:08:54;;;;;;;5.60;3.05;;;;;;;14.13;85.86;100276.86;2570375;90;21715;-91
2022/05/26 02:13:05;;;;;;;6.25;3.30;;;;;;;14.12;86.15;100272.50;2577535;89;21086;-91
2022/05/26 02:17:24;;;;;;;6.03;2.87;;;;;;;14.11;85.73;100278.33;2655285;88;21129;-91
2022/05/26 02:21:33;;;;;;;7.55;3.92;;;;;;;14.04;85.35;100279.93;2659708;86;21349;-89
2022/05/26 02:25:35;;;;;;;7.25;3.47;;;;;;;13.97;85.16;100278.34;2774533;85;21047;-90
2022/05/26 02:29:51;;;;;;;4.72;2.75;;;;;;;13.92;84.99;100277.95;2805977;83;21553;-90
2022/05/26 02:33:56;;;;;;;3.45;2.70;;;;;;;13.90;84.93;100280.41;2830121;82;21053;-91
2022/05/26 02:38:15;;;;;;;4.37;3.22;;;;;;;13.87;84.37;100279.38;2787032;84;21861;-88
2022/05/26 02:42:17;;;;;;;5.60;3.58;;;;;;;13.83;84.02;100284.17;2822622;82;21034;-91
2022/05/26 02:46:58;;;;;;;4.03;2.52;;;;;;;13.77;84.14;100284.28;2831206;83;20994;-90
2022/05/26 02:51:08;;;;;;;3.90;2.20;;;;;;;13.77;83.83;100282.95;2801904;84;21634;-90
2022/05/26 02:55:27;;;;;;;6.03;2.50;;;;;;;13.74;83.90;100292.57;2807013;84;21046;-90
2022/05/26 02:59:45;;;;;;;3.52;2.87;;;;;;;13.77;83.82;100286.95;2808804;84;21078;-91
2022/05/26 03:03:58;;;;;;;6.80;2.65;;;;;;;13.79;83.56;100293.00;2716162;87;21514;-88
2022/05/26 03:08:02;;;;;;;6.28;2.33;;;;;;;13.79;82.74;100277.44;2725895;86;21068;-89
2022/05/26 03:12:04;;;;;;;7.33;2.30;;;;;;;13.77;83.72;100290.11;2743387;86;21363;-91
2022/05/26 03:16:07;;;;;;;6.05;3.10;;;;;;;13.79;83.95;100287.65;2747871;86;21158;-91
2022/05/26 03:20:09;;;;;;;7.75;3.42;;;;;;;13.87;84.80;100280.23;2737836;86;21061;-89
2022/05/26 03:24:11;;;;;;;4.85;3.02;;;;;;;14.00;84.68;100278.55;2736578;86;21524;-90
2022/05/26 03:28:12;;;;;;;4.78;2.25;;;;;;;14.05;84.97;100279.42;2725836;86;21043;-89
2022/05/26 03:32:13;;;;;;;3.42;2.22;;;;;;;14.12;85.11;100271.98;2712602;86;21026;-87
2022/05/26 03:40:46;;;;;;;4.53;2.87;;;;;;;14.20;84.83;100267.23;2752252;84;21003;-89
2022/05/26 03:44:47;;;;;;;4.47;2.35;;;;;;;14.27;84.59;100269.67;2785079;84;21074;-89
2022/05/26 03:48:48;;;;;;;13.62;3.65;;;;;;;14.36;84.54;100267.07;2797437;84;21033;-89
2022/05/26 03:52:51;;;;;;;26.33;3.12;;;;;;;14.41;84.27;100272.80;2839469;82;21058;-89
2022/05/26 03:56:52;;;;;;;3.50;2.27;;;;;;;14.50;84.06;100271.91;2812884;84;21018;-89
2022/05/26 04:00:53;;;;;;;2.47;2.27;;;;;;;14.63;84.58;100274.20;2812051;83;20999;-88
2022/05/26 04:04:56;;;;;;;3.80;2.30;;;;;;;14.83;85.11;100274.91;2817976;83;21062;-89
2022/05/26 04:08:57;;;;;;;2.95;2.33;;;;;;;15.24;84.30;100276.25;2752239;83;21011;-89
2022/05/26 04:12:58;;;;;;;2.22;1.95;;;;;;;15.48;82.45;100275.55;2808501;83;21078;-89
2022/05/26 04:16:59;;;;;;;4.62;2.50;;;;;;;15.71;81.06;100283.91;2830355;83;21050;-88
2022/05/26 04:21:07;;;;;;;5.03;2.22;;;;;;;16.02;81.90;100271.83;2827291;83;21026;-90
2022/05/26 04:25:09;;;;;;;4.03;2.10;;;;;;;16.75;80.68;100268.13;2806527;83;21067;-88
2022/05/26 04:29:16;;;;;;;1.75;1.02;;;;;;;17.13;77.83;100276.55;2808409;84;20999;-89
2022/05/26 04:33:17;;;;;;;1.82;1.50;;;;;;;17.66;78.27;100274.78;2811432;84;21066;-90
2022/05/26 04:37:22;;;;;;;1.72;1.60;;;;;;;17.98;75.26;100272.14;2814703;83;21070;-89
2022/05/26 04:41:23;;;;;;;4.23;2.03;;;;;;;18.09;73.86;100279.88;2813128;83;21452;-89
2022/05/26 04:45:25;;;;;;;1.98;1.35;;;;;;;18.02;73.54;100280.75;2811983;83;21035;-89
2022/05/26 04:49:27;;;;;;;3.70;2.00;;;;;;;17.93;73.97;100281.26;2811296;84;21494;-89
2022/05/26 04:53:29;;;;;;;3.45;1.72;;;;;;;17.80;75.04;100279.95;2842081;83;21060;-88
2022/05/26 04:57:30;;;;;;;6.33;2.40;;;;;;;17.69;75.30;100287.06;2819037;83;21062;-89
2022/05/26 05:01:31;;;;;;;2.77;1.35;;;;;;;17.61;76.29;100289.75;2828190;83;21046;-89
2022/05/26 05:05:32;;;;;;;3.25;1.55;;;;;;;17.54;76.58;100281.53;2855087;82;21676;-90
2022/05/26 05:09:33;;;;;;;3.40;1.52;;;;;;;17.49;76.77;100282.56;2829987;82;20998;-89
2022/05/26 05:13:35;;;;;;;5.80;1.67;;;;;;;17.54;77.51;100296.32;2820292;83;21066;-88
2022/05/26 05:17:36;;;;;;;1.55;1.30;;;;;;;17.57;77.28;100308.08;2856068;82;21518;-89
2022/05/26 05:22:00;;;;;;;2.75;1.57;;;;;;;17.56;77.33;100307.25;2824503;83;21122;-89
2022/05/26 05:26:02;;;;;;;2.12;1.47;;;;;;;17.61;77.36;100306.75;2810217;84;21050;-88
2022/05/26 05:30:15;;;;;;;2.37;1.30;;;;;;;17.66;77.77;100303.52;2776888;83;21022;-88
2022/05/26 05:34:24;;;;;;;1.82;1.52;;;;;;;17.71;78.78;100301.17;2829503;83;21182;-90
2022/05/26 05:38:26;;;;;;;10.05;1.67;;;;;;;17.84;78.57;100308.70;2803419;83;21090;-89
2022/05/26 05:42:29;;;;;;;1.27;1.07;;;;;;;18.01;78.08;100312.16;2780476;83;21028;-88
2022/05/26 05:46:34;;;;;;;3.08;1.00;;;;;;;18.22;78.54;100308.92;2842232;82;21022;-90
2022/05/26 05:50:35;;;;;;;1.75;0.70;;;;;;;18.44;76.57;100310.48;2826685;83;21641;-89
2022/05/26 05:54:37;;;;;;;1.40;0.90;;;;;;;18.65;73.63;100309.83;2779120;84;21129;-90
2022/05/26 05:58:39;;;;;;;1.95;0.90;;;;;;;18.88;71.21;100316.26;2831089;83;21111;-90
2022/05/26 06:02:40;;;;;;;2.12;0.85;;;;;;;19.09;70.73;100319.67;2817890;83;21058;-90
2022/05/26 06:06:44;;;;;;;9.85;1.77;;;;;;;19.23;67.61;100323.43;2777520;83;21003;-88
2022/05/26 06:10:45;;;;;;;1.52;0.60;;;;;;;19.39;67.69;100327.33;2855876;82;21700;-89
2022/05/26 06:14:46;;;;;;;0.78;0.40;;;;;;;19.59;66.85;100327.30;2864622;80;21061;-89
2022/05/26 06:18:49;;;;;;;3.25;1.15;;;;;;;19.69;66.31;100327.89;2836208;83;21610;-88
2022/05/26 06:22:50;;;;;;;3.72;0.90;;;;;;;19.79;64.53;100321.69;2844638;82;21025;-89
2022/05/26 06:26:51;;;;;;;1.57;0.53;;;;;;;19.98;64.14;100319.48;2868872;81;21006;-89
2022/05/26 06:30:52;;;;;;;4.85;0.60;;;;;;;20.05;62.17;100329.88;2831899;83;21101;-90
2022/05/26 06:39:13;;;;;;;5.28;0.98;;;;;;;20.11;63.43;100314.27;2829379;82;21078;-89
2022/05/26 06:43:15;;;;;;;2.12;0.50;;;;;;;20.10;62.32;100323.39;2821998;83;21070;-89
2022/05/26 06:47:21;;;;;;;13.25;1.42;;;;;;;20.18;63.23;100324.30;2809909;82;21041;-89
2022/05/26 06:51:26;;;;;;;13.15;1.12;;;;;;;20.16;60.03;100320.95;2837787;83;21125;-89
2022/05/26 06:55:26;;;;;;;2.65;0.80;;;;;;;20.17;60.86;100317.23;2820208;81;21057;-90
2022/05/26 06:59:27;;;;;;;1.67;0.93;;;;;;;20.24;61.67;100328.94;2811397;83;21500;-89
2022/05/26 07:03:28;;;;;;;2.80;0.98;;;;;;;20.32;62.18;100340.16;2802058;83;21046;-89
2022/05/26 07:07:31;;;;;;;5.80;1.27;;;;;;;20.40;60.01;100330.61;2847382;83;21042;-87
2022/05/26 07:11:32;;;;;;;5.42;1.15;;;;;;;20.46;62.00;100342.00;2798281;83;21042;-89
2022/05/26 07:15:34;;;;;;;2.30;1.05;;;;;;;20.48;58.57;100325.08;2755517;84;21046;-89
2022/05/26 07:19:37;;;;;;;3.80;1.22;;;;;;;20.55;60.98;100342.72;2827821;83;21057;-88
2022/05/26 07:23:39;;;;;;;5.50;1.35;;;;;;;20.55;58.61;100335.47;2814154;83;21082;-89
2022/05/26 07:27:42;;;;;;;7.05;1.30;;;;;;;20.59;60.81;100344.02;2836745;83;20995;-90
2022/05/26 07:31:43;;;;;;;4.35;1.57;;;;;;;20.55;57.52;100344.08;2819666;83;21046;-88
2022/05/26 07:35:46;;;;;;;1.20;0.80;;;;;;;20.62;60.18;100354.97;2836216;83;21124;-89
2022/05/26 07:44:07;;;;;;;2.05;1.20;;;;;;;20.98;60.09;100352.25;2823774;83;21113;-90
2022/05/26 07:48:08;;;;;;;1.07;0.68;;;;;;;21.16;58.30;100346.08;2815877;83;21015;-89
2022/05/26 07:52:10;;;;;;;4.42;0.85;;;;;;;21.37;60.95;100343.84;2842890;82;21145;-87
2022/05/26 07:56:12;;;;;;;1.85;0.85;;;;;;;21.37;57.50;100334.38;2798464;84;21063;-89
2022/05/26 08:00:16;;;;;;;3.60;1.10;;;;;;;21.44;57.61;100346.11;2799872;83;28250;-89
2022/05/26 08:04:18;;;;;;;2.80;1.05;;;;;;;21.68;56.37;100348.89;2806741;83;21066;-89
2022/05/26 08:08:19;;;;;;;3.02;0.98;;;;;;;21.85;57.13;100345.06;2805377;83;21031;-90
2022/05/26 08:12:20;;;;;;;3.80;0.88;;;;;;;21.93;56.38;100347.09;2774510;83;21021;-90
2022/05/26 08:16:21;;;;;;;1.15;0.50;;;;;;;21.95;55.58;100342.81;2795227;83;21051;-87
2022/05/26 08:20:24;;;;;;;1.37;0.85;;;;;;;21.95;55.92;100345.02;2784259;83;20995;-90
2022/05/26 08:24:26;;;;;;;2.47;0.75;;;;;;;22.03;57.32;100347.23;2750122;85;21614;-89
2022/05/26 08:28:27;;;;;;;4.37;0.85;;;;;;;22.13;55.06;100354.48;2805787;83;21623;-88
2022/05/26 08:32:28;;;;;;;2.92;0.72;;;;;;;22.31;57.58;100347.16;2802033;82;21042;-90
2022/05/26 08:36:29;;;;;;;1.02;0.50;;;;;;;22.28;55.97;100369.25;2841749;83;21045;-89
2022/05/26 08:40:42;;;;;;;1.02;0.50;;;;;;;22.17;54.74;100344.06;2843387;82;21041;-90
2022/05/26 08:44:43;;;;;;;2.02;0.65;;;;;;;22.07;56.36;100359.33;2828875;82;21014;-89
2022/05/26 08:49:08;;;;;;;2.08;0.75;;;;;;;22.13;56.57;100345.01;2803453;83;21715;-90
2022/05/26 08:53:14;;;;;;;1.17;0.70;;;;;;;22.10;55.04;100357.58;2846889;82;21038;-87
2022/05/26 08:57:30;;;;;;;0.70;0.30;;;;;;;21.84;56.34;100357.75;2793892;83;21053;-90
2022/05/26 09:01:32;;;;;;;;;;;;;;;21.51;57.02;100369.14;2841693;82;21046;-89
2022/05/26 09:05:38;;;;;;;0.65;0.53;;;;;;;21.15;56.84;100363.34;2800848;83;20492;-89
2022/05/26 09:14:34;;;;;;;3.52;1.15;;;;;;;21.24;58.21;100358.95;2808088;83;21019;-90
2022/05/26 09:18:36;;;;;;;0.82;0.25;;;;;;;21.53;56.94;100354.39;2832736;83;21042;-90
2022/05/26 09:22:46;;;;;;;6.72;0.70;;;;;;;21.97;56.58;100366.46;2808030;83;21051;-90
2022/05/26 09:26:57;;;;;;;1.05;0.80;;;;;;;22.12;58.26;100374.48;2793272;83;21078;-90
2022/05/26 09:31:33;;;;;;;2.58;0.93;;;;;;;22.34;59.15;100368.42;2796655;83;21552;-89
2022/05/26 09:35:34;;;;;;;3.23;0.87;;;;;;;22.40;56.25;100371.70;2820611;82;21029;-89
2022/05/26 09:39:42;;;;;;;2.67;0.90;;;;;;;22.60;57.97;100368.27;2850368;82;21034;-85
2022/05/26 09:43:52;;;;;;;2.22;0.35;;;;;;;22.66;56.46;100362.52;2834984;82;21049;-90
2022/05/26 09:47:58;;;;;;;1.60;0.50;;;;;;;22.66;55.62;100369.30;2851002;82;21592;-89
2022/05/26 09:52:17;;;;;;;;;;;;;;;22.77;56.02;100365.16;2821557;83;21050;-89
2022/05/26 09:56:41;;;;;;;3.87;0.60;;;;;;;22.85;55.03;100360.92;2856621;82;20125;-89
2022/05/26 10:00:48;;;;;;;0.75;0.40;;;;;;;22.88;53.81;100367.28;2848965;82;21148;-90
2022/05/26 10:04:57;;;;;;;1.25;0.35;;;;;;;22.80;55.53;100372.37;2841074;82;21006;-89
2022/05/26 10:09:25;;;;;;;4.97;0.85;;;;;;;22.90;54.58;100381.47;2845671;82;20963;-90
2022/05/26 10:13:58;;;;;;;3.05;0.78;;;;;;;22.75;54.70;100380.80;2798448;82;21069;-89
2022/05/26 10:18:33;;;;;;;0.70;0.45;;;;;;;23.20;56.04;100379.75;2798639;83;21042;-90
2022/05/26 10:23:16;;;;;;;1.17;0.30;;;;;;;23.27;54.98;100389.80;2824167;83;21042;-88
2022/05/26 10:27:41;;;;;;;1.15;0.72;;;;;;;23.01;54.31;100381.38;2806422;83;21353;-91
2022/05/26 10:32:08;;;;;;;1.27;0.45;;;;;;;23.02;56.28;100389.02;2789373;84;21038;-89
2022/05/26 10:36:30;;;;;;;1.02;0.47;;;;;;;23.19;55.06;100378.09;2807479;83;21034;-89
2022/05/26 10:40:40;;;;;;;2.27;0.68;;;;;;;22.52;54.22;100381.98;2801090;83;21721;-88
2022/05/26 10:45:02;;;;;;;0.42;0.42;;;;;;;22.57;53.88;100386.27;2836965;83;21022;-89
2022/05/26 10:49:14;;;;;;;2.22;0.60;;;;;;;22.76;54.79;100390.09;2821278;83;21093;-90
2022/05/26 10:53:32;;;;;;;0.60;0.20;;;;;;;23.06;56.36;100384.84;2802380;83;21149;-90
2022/05/26 10:57:44;;;;;;;1.77;0.40;;;;;;;23.25;53.75;100381.83;2797887;83;21050;-89
2022/05/26 11:02:09;;;;;;;1.10;0.60;;;;;;;23.29;51.89;100372.79;2816213;83;21085;-88
2022/05/26 11:06:21;;;;;;;1.42;0.37;;;;;;;23.35;54.08;100386.88;2805266;84;21076;-89
2022/05/26 11:10:31;;;;;;;2.30;0.60;;;;;;;23.15;53.62;100389.02;2794800;82;21065;-89
2022/05/26 11:19:38;;;;;;;3.52;0.70;;;;;;;22.88;51.75;100398.47;2835598;83;21094;-89
2022/05/26 11:23:41;;;;;;;6.15;0.57;;;;;;;22.65;53.27;100396.95;2764109;84;21061;-89
2022/05/26 11:27:53;;;;;;;0.70;0.42;;;;;;;22.61;55.41;100397.05;2831027;82;21006;-90
2022/05/26 11:36:51;;;;;;;0.93;0.35;;;;;;;23.29;54.43;100383.64;2829862;82;21132;-87
2022/05/26 11:41:05;;;;;;;0.62;0.50;;;;;;;23.60;53.68;100373.52;2820083;82;21604;-90
2022/05/26 11:45:23;;;;;;;1.72;0.50;;;;;;;23.39;51.67;100384.08;2825380;82;21057;-89
2022/05/26 11:49:51;;;;;;;0.98;0.75;;;;;;;23.34;54.36;100379.77;2827924;83;21572;-89
2022/05/26 11:53:53;;;;;;;3.02;0.40;;;;;;;23.19;51.74;100375.38;2719812;84;21121;-90
2022/05/26 11:57:55;;;;;;;0.75;0.50;;;;;;;23.18;51.55;100392.66;2739659;85;21452;-89
2022/05/26 12:02:16;;;;;;;1.77;0.50;;;;;;;23.18;51.35;100391.84;2772780;85;21058;-89
2022/05/26 12:06:42;;;;;;;9.53;0.98;;;;;;;22.95;51.60;100365.41;2756634;85;21103;-89
2022/05/26 12:10:54;;;;;;;1.20;0.42;;;;;;;22.90;50.51;100367.91;2759175;85;21105;-89
2022/05/26 12:15:10;;;;;;;11.73;1.10;;;;;;;22.95;52.49;100373.55;2732041;85;21066;-88
2022/05/26 12:19:11;;;;;;;7.67;0.70;;;;;;;22.74;51.24;100377.27;2736455;85;20999;-88
2022/05/26 12:23:20;;;;;;;0.10;0.10;;;;;;;22.55;52.12;100368.02;2726366;85;21060;-90
2022/05/26 12:27:54;;;;;;;0.40;0.40;;;;;;;22.38;51.97;100362.91;2738179;85;21031;-91
2022/05/26 12:32:13;;;;;;;2.20;0.60;;;;;;;22.68;55.60;100381.62;2838217;82;21669;-89
2022/05/26 12:36:46;;;;;;;4.00;0.88;;;;;;;22.94;53.04;100368.34;2845520;82;21093;-91
2022/05/26 12:41:15;;;;;;;0.62;0.40;;;;;;;22.73;51.18;100364.75;2827472;83;21035;-89
2022/05/26 12:45:39;;;;;;;1.90;0.35;;;;;;;22.67;53.26;100370.47;2821470;83;21025;-90
2022/05/26 12:50:07;;;;;;;2.15;0.37;;;;;;;22.75;54.30;100364.53;2794708;83;21038;-90
2022/05/26 12:54:13;;;;;;;2.10;0.50;;;;;;;22.74;53.25;100358.28;2845023;82;21122;-89
2022/05/26 12:58:23;;;;;;;2.92;0.60;;;;;;;22.73;52.74;100360.69;2791330;84;21050;-90
2022/05/26 13:02:30;;;;;;;1.30;0.40;;;;;;;22.97;54.23;100363.86;2841250;83;21074;-89
2022/05/26 13:06:36;;;;;;;1.35;0.37;;;;;;;23.17;55.79;100347.59;2815551;83;21026;-89
2022/05/26 13:10:40;;;;;;;0.90;0.50;;;;;;;23.49;52.67;100345.13;2815409;84;21042;-89
2022/05/26 13:14:49;;;;;;;3.25;0.40;;;;;;;23.61;52.06;100337.17;2816012;83;21031;-87
2022/05/26 13:18:51;;;;;;;3.10;0.60;;;;;;;23.63;52.42;100346.47;2816837;83;21043;-85
2022/05/26 13:22:52;;;;;;;2.70;1.25;;;;;;;23.98;51.46;100345.34;2812396;83;20987;-90
2022/05/26 13:27:01;;;;;;;2.62;0.72;;;;;;;24.42;51.41;100342.37;2814683;83;21086;-87
2022/05/26 13:35:22;;;;;;;1.80;0.45;;;;;;;24.44;49.02;100336.73;2810936;83;21027;-89
2022/05/26 13:39:26;;;;;;;11.03;0.82;;;;;;;24.58;50.42;100344.30;2812877;83;21034;-90
2022/05/26 13:43:30;;;;;;;1.35;0.40;;;;;;;24.20;49.83;100343.23;2794302;83;21023;-90
2022/05/26 13:47:31;;;;;;;4.37;1.32;;;;;;;23.65;50.79;100341.66;2809340;83;21149;-91
2022/05/26 13:51:41;;;;;;;0.75;0.25;;;;;;;23.20;52.27;100351.27;2764593;83;21037;-90
2022/05/26 13:55:46;;;;;;;2.62;1.02;;;;;;;22.96;52.44;100344.02;2788198;83;21094;-90
2022/05/26 13:59:51;;;;;;;2.95;0.65;;;;;;;22.92;53.13;100347.38;2780684;83;21062;-89
2022/05/26 14:04:01;;;;;;;0.93;0.40;;;;;;;23.03;53.45;100344.57;2785051;84;21484;-90
2022/05/26 14:08:10;;;;;;;1.15;0.85;;;;;;;23.66;52.52;100336.55;2812986;84;21046;-89
2022/05/26 14:12:22;;;;;;;6.70;0.78;;;;;;;23.76;50.64;100335.56;2787777;83;21050;-87
2022/05/26 14:16:27;;;;;;;0.40;0.28;;;;;;;23.45;52.52;100337.09;2816040;83;21015;-90
2022/05/26 14:20:29;;;;;;;0.30;0.20;;;;;;;23.02;52.76;100345.08;2809891;83;21026;-89
2022/05/26 14:24:38;;;;;;;1.00;0.45;;;;;;;22.72;53.94;100335.13;2827256;82;21030;-89
2022/05/26 14:28:42;;;;;;;3.00;0.53;;;;;;;22.57;54.02;100338.01;2812112;83;21031;-89
2022/05/26 14:32:43;;;;;;;0.42;0.30;;;;;;;22.72;55.77;100335.13;2838000;81;21109;-91
2022/05/26 14:36:44;;;;;;;13.18;0.68;;;;;;;22.63;53.79;100339.39;2821590;83;21083;-89
2022/05/26 14:40:47;;;;;;;4.62;0.53;;;;;;;22.62;54.11;100335.01;2823168;83;21061;-88
2022/05/26 14:44:49;;;;;;;2.85;0.45;;;;;;;22.60;53.60;100343.02;2828107;83;21184;-89
2022/05/26 14:48:50;;;;;;;8.40;0.65;;;;;;;22.47;53.40;100331.09;2829112;83;21026;-89
2022/05/26 14:52:52;;;;;;;0.80;0.25;;;;;;;22.39;54.16;100333.95;2836591;83;21057;-88
2022/05/26 14:56:53;;;;;;;1.00;0.53;;;;;;;22.24;54.17;100343.59;2821626;83;21542;-87
2022/05/26 15:00:56;;;;;;;2.77;0.60;;;;;;;22.21;54.34;100339.94;2820535;83;21547;-88
2022/05/26 15:04:57;;;;;;;1.05;0.40;;;;;;;22.22;53.91;100330.78;2790636;84;21105;-89
2022/05/26 15:08:58;;;;;;;1.35;0.50;;;;;;;22.60;54.53;100327.60;2797175;84;21030;-90
2022/05/26 15:13:00;;;;;;;0.78;0.45;;;;;;;22.72;53.88;100325.63;2865056;82;21085;-90
2022/05/26 15:17:06;;;;;;;2.95;0.60;;;;;;;22.78;54.09;100299.04;2827403;83;21574;-88
2022/05/26 15:21:08;;;;;;;0.72;0.50;;;;;;;22.57;51.43;100314.44;2819800;83;21050;-89
2022/05/26 15:25:12;;;;;;;4.05;0.70;;;;;;;22.56;52.81;100314.13;2822822;83;21070;-89
2022/05/26 15:29:13;;;;;;;0.57;0.40;;;;;;;22.45;52.54;100324.19;2765593;85;21422;-89
2022/05/26 15:33:14;;;;;;;2.30;0.90;;;;;;;22.28;51.46;100323.69;2791012;85;21039;-88
2022/05/26 15:37:15;;;;;;;1.95;0.75;;;;;;;22.27;51.86;100322.88;2794544;85;21421;-90
2022/05/26 15:41:16;;;;;;;0.90;0.33;;;;;;;22.28;52.06;100328.60;2794206;85;21107;-90
2022/05/26 15:45:18;;;;;;;1.98;0.75;;;;;;;22.28;52.86;100321.83;2796005;83;21070;-89
2022/05/26 15:49:24;;;;;;;1.65;0.47;;;;;;;22.38;53.51;100324.98;2802105;83;21043;-89
2022/05/26 15:53:29;;;;;;;2.98;0.40;;;;;;;22.70;53.62;100313.66;2836142;82;21029;-88
2022/05/26 15:57:29;;;;;;;2.10;0.50;;;;;;;22.71;52.90;100311.26;2805998;84;21462;-88
2022/05/26 16:01:31;;;;;;;3.27;0.95;;;;;;;22.59;53.11;100305.58;2823726;82;21038;-90
2022/05/26 16:05:32;;;;;;;1.50;0.75;;;;;;;22.47;52.80;100314.00;2809006;84;21567;-90
2022/05/26 16:09:33;;;;;;;2.83;0.93;;;;;;;22.35;53.19;100302.36;2844991;83;21054;-89
2022/05/26 16:13:35;;;;;;;1.40;0.70;;;;;;;22.32;52.30;100314.96;2813177;84;21022;-89
2022/05/26 16:17:36;;;;;;;0.93;0.60;;;;;;;22.49;52.56;100314.09;2839473;83;21035;-88
2022/05/26 16:21:37;;;;;;;1.70;0.65;;;;;;;22.87;51.70;100300.53;2802139;83;21030;-89
2022/05/26 16:25:39;;;;;;;3.60;0.80;;;;;;;22.97;51.96;100318.56;2819506;83;21078;-89
2022/05/26 16:29:40;;;;;;;1.45;0.85;;;;;;;22.82;50.13;100303.03;2821190;83;21027;-90
2022/05/26 16:33:41;;;;;;;0.95;0.62;;;;;;;22.84;51.89;100315.86;2778676;83;21007;-89
2022/05/26 16:37:43;;;;;;;1.30;1.05;;;;;;;22.62;51.78;100311.97;2819483;83;21070;-88
2022/05/26 16:41:45;;;;;;;1.75;0.62;;;;;;;22.18;51.60;100320.86;2817793;83;21058;-90
2022/05/26 16:45:47;;;;;;;1.17;1.00;;;;;;;21.94;51.93;100323.55;2813008;83;21042;-90
2022/05/26 16:49:49;;;;;;;1.75;1.57;;;;;;;21.79;53.16;100323.14;2814508;83;21554;-89
2022/05/26 16:53:51;;;;;;;2.90;0.60;;;;;;;21.76;53.61;100326.78;2811855;83;21706;-89
2022/05/26 16:57:53;;;;;;;3.40;1.32;;;;;;;21.67;53.12;100334.22;2746450;84;21043;-87
2022/05/26 17:01:54;;;;;;;6.05;2.22;;;;;;;21.62;53.22;100327.19;2833087;82;21045;-86
2022/05/26 17:05:56;;;;;;;1.47;1.07;;;;;;;21.59;54.02;100327.06;2857665;81;21053;-89
2022/05/26 17:09:57;;;;;;;1.52;1.05;;;;;;;21.54;53.67;100325.47;2847567;81;20991;-91
2022/05/26 17:22:40;;;;;;;2.27;1.12;;;;;;;22.04;53.67;100336.72;2839236;82;21534;-90
2022/05/26 17:26:41;;;;;;;4.28;1.50;;;;;;;21.93;54.09;100329.99;2829495;82;21062;-89
2022/05/26 17:30:42;;;;;;;2.90;1.00;;;;;;;21.72;54.99;100329.05;2823064;83;21538;-88
2022/05/26 17:34:44;;;;;;;4.40;1.65;;;;;;;21.40;54.62;100326.72;2802935;83;21022;-89
2022/05/26 17:38:46;;;;;;;5.55;1.15;;;;;;;21.15;55.32;100326.30;2847149;82;21073;-90
2022/05/26 17:42:47;;;;;;;1.40;1.02;;;;;;;21.03;55.98;100334.60;2825095;83;21014;-90
2022/05/26 17:46:50;;;;;;;1.55;1.22;;;;;;;20.97;56.18;100332.18;2841177;81;21053;-87
2022/05/26 17:50:52;;;;;;;2.87;1.25;;;;;;;20.84;55.48;100326.14;2859396;81;21017;-89
2022/05/26 17:55:00;;;;;;;3.70;1.07;;;;;;;20.83;55.69;100335.24;2799096;82;22234;-90
2022/05/26 17:59:01;;;;;;;1.72;1.40;;;;;;;20.79;55.79;100328.52;2840142;82;21051;-90
2022/05/26 18:03:07;;;;;;;2.22;1.45;;;;;;;20.75;56.77;100337.55;2790909;84;21074;-90
2022/05/26 18:07:07;;;;;;;;;;;;;;;20.70;57.68;100334.56;2839158;82;21057;-89
2022/05/26 18:11:11;;;;;;;5.22;1.17;;;;;;;20.61;57.35;100323.03;2813955;82;20444;-89
2022/05/26 18:15:12;;;;;;;4.12;1.17;;;;;;;20.59;57.95;100333.73;2815741;83;21014;-90
2022/05/26 18:19:18;;;;;;;5.55;2.35;;;;;;;20.55;58.13;100337.32;2815614;82;21018;-90
2022/05/26 18:23:22;;;;;;;;;;;;;;;20.52;58.82;100340.41;2840041;82;21053;-89
2022/05/26 18:27:23;;;;;;;12.47;2.62;;;;;;;20.49;58.95;100341.61;2786375;84;20127;-90
2022/05/26 18:31:30;;;;;;;1.55;0.70;;;;;;;20.38;59.04;100349.70;2843506;82;21023;-91
2022/05/26 18:35:37;;;;;;;1.05;0.80;;;;;;;20.33;59.39;100340.48;2816576;83;21685;-90
2022/05/26 18:39:35;;;;;;;4.30;1.27;;;;;;;20.25;58.88;100335.52;2832606;83;21050;-86
2022/05/26 18:43:36;;;;;;;4.10;1.57;;;;;;;20.27;59.01;100338.04;2810582;83;21039;-91
2022/05/26 18:47:42;;;;;;;1.47;1.20;;;;;;;20.22;58.91;100343.15;2832522;83;21026;-91
2022/05/26 18:51:43;;;;;;;1.47;1.20;;;;;;;20.18;58.64;100344.55;2783986;84;21046;-90
2022/05/26 18:55:49;;;;;;;3.20;1.35;;;;;;;20.06;58.78;100326.65;2831731;82;21030;-90
2022/05/26 18:59:50;;;;;;;6.28;1.55;;;;;;;20.17;58.70;100338.83;2831590;82;21544;-90
2022/05/26 19:03:54;;;;;;;5.85;1.20;;;;;;;20.18;58.72;100341.86;2823211;83;20975;-92
2022/05/26 19:07:55;;;;;;;2.47;1.67;;;;;;;20.14;58.75;100346.78;2849155;82;21070;-92
2022/05/26 19:11:56;;;;;;;5.17;1.98;;;;;;;20.13;58.93;100355.91;2814008;84;21104;-90
2022/05/26 19:15:58;;;;;;;2.90;1.30;;;;;;;20.10;58.88;100354.45;2805270;84;21788;-88
2022/05/26 19:19:59;;;;;;;1.17;0.80;;;;;;;20.08;59.31;100365.09;2820693;83;21069;-90
2022/05/26 19:24:00;;;;;;;1.32;0.75;;;;;;;20.03;58.99;100355.37;2787524;83;21064;-87
2022/05/26 19:28:01;;;;;;;3.52;0.80;;;;;;;19.98;59.10;100367.58;2838463;83;21001;-89
2022/05/26 19:32:05;;;;;;;2.17;1.47;;;;;;;19.95;59.30;100366.61;2792422;82;21030;-91
2022/05/26 19:36:06;;;;;;;2.02;1.62;;;;;;;19.92;59.59;100378.27;2838849;82;21502;-92
2022/05/26 19:40:10;;;;;;;2.17;1.22;;;;;;;19.89;59.89;100371.34;2808678;82;21053;-93
2022/05/26 19:44:13;;;;;;;4.97;1.72;;;;;;;19.84;60.19;100378.63;2817577;83;21018;-91
2022/05/26 19:48:14;;;;;;;3.70;1.57;;;;;;;19.80;60.42;100381.38;2825973;82;21034;-91